createdAt,value
2022-10-25T00:04:12.300Z,11.78
2022-10-25T00:09:26.732Z,11.66
2022-10-25T00:19:58.817Z,11.41
2022-10-25T00:25:07.033Z,11.33
2022-10-25T00:30:15.130Z,11.38
2022-10-25T00:35:24.142Z,11.39
2022-10-25T00:46:05.171Z,11.23
2022-10-25T00:51:09.452Z,11.14
2022-10-25T00:56:26.304Z,11.05
2022-10-25T01:01:51.764Z,10.94
2022-10-25T01:07:18.048Z,10.81
2022-10-25T01:12:29.097Z,10.75
2022-10-25T01:18:22.249Z,10.67
2022-10-25T01:24:06.458Z,10.61
2022-10-25T01:29:15.470Z,10.56
2022-10-25T01:35:01.173Z,10.53
2022-10-25T01:40:55.869Z,10.49
2022-10-25T01:46:54.668Z,10.56
2022-10-25T01:52:03.105Z,10.55
2022-10-25T01:57:12.952Z,10.40
2022-10-25T02:02:36.707Z,10.24
2022-10-25T02:08:02.242Z,10.04
2022-10-25T02:13:53.768Z,9.98
2022-10-25T02:19:04.266Z,10.05
2022-10-25T02:24:18.794Z,9.96
2022-10-25T02:29:33.725Z,9.86
2022-10-25T02:34:45.800Z,9.93
2022-10-25T02:40:07.457Z,9.97
2022-10-25T02:45:35.798Z,9.95
2022-10-25T02:50:59.183Z,9.92
2022-10-25T03:01:33.646Z,9.84
2022-10-25T03:06:49.162Z,9.85
2022-10-25T03:11:56.001Z,9.85
2022-10-25T03:17:02.748Z,9.87
2022-10-25T03:22:12.024Z,9.96
2022-10-25T03:27:24.051Z,10.04
2022-10-25T03:38:03.966Z,10.21
2022-10-25T03:43:15.295Z,10.25
2022-10-25T03:48:37.953Z,10.25
2022-10-25T03:53:48.109Z,10.16
2022-10-25T03:58:55.669Z,10.06
2022-10-25T04:04:12.131Z,10.00
2022-10-25T04:09:32.967Z,9.90
2022-10-25T04:14:49.474Z,9.93
2022-10-25T04:20:03.353Z,10.01
2022-10-25T04:25:19.973Z,10.12
2022-10-25T04:30:28.081Z,10.20
2022-10-25T04:35:34.249Z,10.30
2022-10-25T04:40:37.839Z,10.31
2022-10-25T04:45:41.922Z,10.38
2022-10-25T04:50:46.674Z,10.45
2022-10-25T04:56:13.613Z,10.55
2022-10-25T05:01:23.570Z,10.49
2022-10-25T05:06:34.922Z,10.44
2022-10-25T05:11:45.121Z,10.37
2022-10-25T05:17:03.299Z,10.29
2022-10-25T05:22:12.787Z,10.20
2022-10-25T05:27:26.268Z,10.15
2022-10-25T05:32:34.775Z,10.16
2022-10-25T05:37:45.369Z,10.29
2022-10-25T05:42:58.271Z,10.41
2022-10-25T05:48:05.129Z,10.48
2022-10-25T05:53:09.353Z,10.58
2022-10-25T05:58:13.158Z,10.65
2022-10-25T06:03:16.493Z,10.77
2022-10-25T06:08:19.876Z,10.86
2022-10-25T06:13:23.428Z,10.95
2022-10-25T06:18:27.455Z,11.05
2022-10-25T06:23:32.083Z,11.20
2022-10-25T06:28:35.922Z,11.31
2022-10-25T06:33:39.699Z,11.39
2022-10-25T06:38:48.560Z,11.52
2022-10-25T06:43:52.153Z,11.64
2022-10-25T06:48:57.038Z,11.81
2022-10-25T06:54:08.356Z,12.04
2022-10-25T06:59:13.516Z,12.29
2022-10-25T07:04:17.119Z,12.56
2022-10-25T07:09:20.361Z,12.91
2022-10-25T07:14:23.735Z,13.38
2022-10-25T07:19:27.036Z,13.79
2022-10-25T07:24:30.304Z,14.11
2022-10-25T07:29:33.530Z,14.32
2022-10-25T07:34:37.001Z,14.51
2022-10-25T07:39:40.812Z,14.66
2022-10-25T07:44:44.082Z,14.83
2022-10-25T07:49:48.933Z,15.08
2022-10-25T07:54:52.129Z,15.33
2022-10-25T07:59:56.655Z,15.55
2022-10-25T08:05:00.425Z,15.59
2022-10-25T08:10:04.062Z,15.60
2022-10-25T08:15:10.811Z,15.65
2022-10-25T08:20:14.361Z,15.80
2022-10-25T08:25:17.912Z,16.04
2022-10-25T08:30:21.413Z,16.21
2022-10-25T08:35:24.670Z,16.19
2022-10-25T08:40:57.374Z,16.25
2022-10-25T08:46:08.232Z,16.52
2022-10-25T08:51:33.123Z,16.78
2022-10-25T08:56:42.556Z,16.99
2022-10-25T09:01:57.870Z,17.20
2022-10-25T09:07:40.631Z,17.10
2022-10-25T09:13:08.480Z,17.06
2022-10-25T09:18:18.047Z,17.08
2022-10-25T09:23:24.513Z,17.07
2022-10-25T09:28:52.553Z,17.16
2022-10-25T09:34:04.617Z,17.16
2022-10-25T09:39:36.139Z,17.13
2022-10-25T09:44:47.342Z,17.22
2022-10-25T09:49:58.988Z,17.28
2022-10-25T09:55:08.734Z,17.29
2022-10-25T10:00:15.904Z,17.16
2022-10-25T10:05:20.944Z,17.05
2022-10-25T10:10:32.819Z,17.04
2022-10-25T10:16:00.987Z,16.97
2022-10-25T10:21:18.733Z,16.97
2022-10-25T10:26:44.632Z,17.02
2022-10-25T10:31:51.189Z,17.08
2022-10-25T10:37:13.018Z,17.09
2022-10-25T10:42:19.465Z,17.06
2022-10-25T10:47:22.653Z,17.06
2022-10-25T10:52:32.876Z,17.03
2022-10-25T10:57:36.835Z,16.92
2022-10-25T11:02:41.467Z,16.80
2022-10-25T11:07:45.085Z,16.71
2022-10-25T11:13:07.656Z,16.73
2022-10-25T11:18:11.571Z,16.77
2022-10-25T11:23:23.910Z,16.80
2022-10-25T11:28:48.486Z,16.77
2022-10-25T11:34:00.880Z,17.12
2022-10-25T11:39:03.987Z,17.47
2022-10-25T11:44:46.413Z,17.76
2022-10-25T11:50:14.757Z,18.04
2022-10-25T11:55:41.076Z,18.15
2022-10-25T12:01:06.739Z,18.38
2022-10-25T12:06:13.148Z,18.78
2022-10-25T12:11:23.961Z,18.97
2022-10-25T12:16:28.991Z,19.18
2022-10-25T12:21:42.349Z,19.12
2022-10-25T12:26:46.326Z,19.13
2022-10-25T12:31:54.648Z,19.20
2022-10-25T12:37:04.341Z,19.11
2022-10-25T12:42:35.118Z,19.07
2022-10-25T12:48:01.466Z,19.16
2022-10-25T12:53:24.692Z,19.19
2022-10-25T12:58:59.093Z,19.34
2022-10-25T13:04:38.259Z,19.34
2022-10-25T13:09:42.093Z,19.07
2022-10-25T13:14:52.938Z,18.76
2022-10-25T13:20:23.806Z,18.54
2022-10-25T13:25:34.343Z,18.29
2022-10-25T13:30:40.037Z,18.12
2022-10-25T13:35:44.416Z,17.93
2022-10-25T13:41:15.677Z,17.73
2022-10-25T13:46:31.575Z,17.58
2022-10-25T13:51:43.777Z,17.47
2022-10-25T13:56:54.937Z,17.31
2022-10-25T14:02:08.791Z,17.22
2022-10-25T14:07:46.878Z,17.06
2022-10-25T14:12:53.715Z,16.89
2022-10-25T14:17:59.065Z,16.76
2022-10-25T14:23:04.029Z,16.66
2022-10-25T14:28:15.187Z,16.54
2022-10-25T14:33:50.688Z,16.42
2022-10-25T14:38:56.675Z,16.36
2022-10-25T14:44:00.262Z,16.31
2022-10-25T14:49:21.940Z,16.29
2022-10-25T14:54:31.600Z,16.24
2022-10-25T14:59:47.505Z,16.20
2022-10-25T15:04:54.398Z,16.14
2022-10-25T15:15:40.850Z,16.29
2022-10-25T15:20:44.256Z,16.23
2022-10-25T15:25:47.738Z,16.07
2022-10-25T15:35:22.202Z,15.62
2022-10-25T15:40:28.403Z,15.25
2022-10-25T15:46:01.106Z,14.98
2022-10-25T15:51:33.796Z,14.71
2022-10-25T15:56:47.816Z,14.42
2022-10-25T16:01:55.399Z,14.20
2022-10-25T16:07:01.664Z,14.09
2022-10-25T16:12:33.667Z,13.97
2022-10-25T16:17:47.875Z,13.84
2022-10-25T16:23:04.287Z,13.69
2022-10-25T16:28:35.371Z,13.58
2022-10-25T16:33:55.119Z,13.51
2022-10-25T16:39:04.027Z,13.45
2022-10-25T16:44:20.695Z,13.34
2022-10-25T16:49:54.533Z,13.20
2022-10-25T17:00:43.366Z,12.98
2022-10-25T17:05:47.096Z,12.94
2022-10-25T17:10:58.019Z,12.91
2022-10-25T17:16:11.503Z,12.93
2022-10-25T17:21:16.866Z,12.96
2022-10-25T17:26:21.017Z,12.97
2022-10-25T17:31:25.103Z,12.99
2022-10-25T17:36:31.933Z,12.98
2022-10-25T17:41:45.997Z,12.99
2022-10-25T17:46:58.519Z,13.01
2022-10-25T17:52:07.609Z,13.03
2022-10-25T17:57:14.090Z,13.06
2022-10-25T18:02:19.767Z,13.05
2022-10-25T18:07:23.017Z,13.01
2022-10-25T18:12:28.114Z,13.02
2022-10-25T18:17:35.119Z,13.00
2022-10-25T18:22:38.935Z,12.96
2022-10-25T18:27:43.706Z,12.90
2022-10-25T18:32:52.916Z,12.81
2022-10-25T18:38:04.737Z,12.66
2022-10-25T18:43:12.089Z,12.51
2022-10-25T18:48:15.303Z,12.36
2022-10-25T18:53:21.806Z,12.25
2022-10-25T18:58:25.005Z,12.10
2022-10-25T19:03:39.240Z,11.91
2022-10-25T19:08:43.444Z,11.72
2022-10-25T19:13:50.578Z,11.58
2022-10-25T19:18:55.089Z,11.45
2022-10-25T19:24:02.449Z,11.31
2022-10-25T19:29:07.151Z,11.16
2022-10-25T19:34:11.110Z,11.03
2022-10-25T19:39:18.428Z,10.93
2022-10-25T19:44:23.296Z,10.82
2022-10-25T19:49:32.157Z,10.72
2022-10-25T19:54:48.365Z,10.61
2022-10-25T19:59:55.973Z,10.50
2022-10-25T20:05:03.698Z,10.36
2022-10-25T20:10:08.178Z,10.31
2022-10-25T20:15:19.649Z,10.25
2022-10-25T20:20:31.293Z,10.22
2022-10-25T20:25:40.122Z,10.17
2022-10-25T20:30:47.628Z,10.13
2022-10-25T20:35:51.636Z,10.02
2022-10-25T20:40:57.535Z,9.91
2022-10-25T20:46:06.631Z,9.83
2022-10-25T20:51:23.945Z,9.74
2022-10-25T20:56:34.975Z,9.72
2022-10-25T21:01:49.894Z,9.69
2022-10-25T21:06:54.619Z,9.71
2022-10-25T21:12:02.374Z,9.71
2022-10-25T21:17:05.886Z,9.66
2022-10-25T21:22:17.837Z,9.45
2022-10-25T21:27:39.254Z,9.31
2022-10-25T21:32:49.952Z,9.26
2022-10-25T21:37:53.562Z,9.23
2022-10-25T21:43:23.511Z,9.27
2022-10-25T21:48:30.259Z,9.17
2022-10-25T21:53:37.520Z,8.90
2022-10-25T21:58:49.602Z,8.65
2022-10-25T22:03:58.951Z,8.50
2022-10-25T22:09:04.170Z,8.39
2022-10-25T22:14:13.837Z,8.27
2022-10-25T22:19:20.137Z,8.15
2022-10-25T22:24:23.556Z,8.11
2022-10-25T22:29:27.399Z,8.15
2022-10-25T22:34:31.875Z,8.05
2022-10-25T22:39:36.695Z,8.01
2022-10-25T22:44:40.150Z,7.94
2022-10-25T22:49:43.370Z,7.85
2022-10-25T22:54:47.575Z,7.78
2022-10-25T22:59:50.862Z,7.65
2022-10-25T23:04:53.977Z,7.62
2022-10-25T23:09:57.110Z,7.57
2022-10-25T23:15:00.080Z,7.49
2022-10-25T23:20:03.399Z,7.38
2022-10-25T23:25:07.551Z,7.10
2022-10-25T23:30:13.318Z,6.99
2022-10-25T23:35:16.953Z,6.95
2022-10-25T23:40:20.260Z,6.94
2022-10-25T23:45:23.907Z,6.85
2022-10-25T23:50:28.283Z,6.71
2022-10-25T23:55:31.554Z,6.76
